sensor_id;sensor_type;location;lat;lon;timestamp;temperature;humidity
12446;DHT22;6287;50.984;7.022;2022-08-27T00:00:21;19.90;99.90
12446;DHT22;6287;50.984;7.022;2022-08-27T00:02:48;19.80;99.90
12446;DHT22;6287;50.984;7.022;2022-08-27T00:05:16;19.80;99.90
12446;DHT22;6287;50.984;7.022;2022-08-27T00:07:43;19.80;99.90
12446;DHT22;6287;50.984;7.022;2022-08-27T00:10:17;19.80;99.90
12446;DHT22;6287;50.984;7.022;2022-08-27T00:12:43;19.80;99.90
12446;DHT22;6287;50.984;7.022;2022-08-27T00:15:09;19.80;99.90
12446;DHT22;6287;50.984;7.022;2022-08-27T00:17:38;19.70;99.90
12446;DHT22;6287;50.984;7.022;2022-08-27T00:20:05;19.70;99.90
12446;DHT22;6287;50.984;7.022;2022-08-27T00:22:32;19.70;99.90
12446;DHT22;6287;50.984;7.022;2022-08-27T00:25:03;19.60;99.90
12446;DHT22;6287;50.984;7.022;2022-08-27T00:27:29;19.60;99.90
12446;DHT22;6287;50.984;7.022;2022-08-27T00:29:55;19.60;99.90
12446;DHT22;6287;50.984;7.022;2022-08-27T00:32:22;19.60;99.90
12446;DHT22;6287;50.984;7.022;2022-08-27T00:34:48;19.50;99.90
12446;DHT22;6287;50.984;7.022;2022-08-27T00:37:17;19.60;99.90
12446;DHT22;6287;50.984;7.022;2022-08-27T00:39:48;19.60;99.90
12446;DHT22;6287;50.984;7.022;2022-08-27T00:42:13;19.60;99.90
12446;DHT22;6287;50.984;7.022;2022-08-27T00:44:40;19.60;99.90
12446;DHT22;6287;50.984;7.022;2022-08-27T00:47:24;19.60;99.90
12446;DHT22;6287;50.984;7.022;2022-08-27T00:49:57;19.60;99.90
12446;DHT22;6287;50.984;7.022;2022-08-27T00:52:35;19.60;99.90
12446;DHT22;6287;50.984;7.022;2022-08-27T00:55:09;19.60;99.90
12446;DHT22;6287;50.984;7.022;2022-08-27T00:57:40;19.50;99.90
12446;DHT22;6287;50.984;7.022;2022-08-27T01:00:13;19.50;99.90
12446;DHT22;6287;50.984;7.022;2022-08-27T01:02:42;19.60;99.90
12446;DHT22;6287;50.984;7.022;2022-08-27T01:05:25;19.50;99.90
12446;DHT22;6287;50.984;7.022;2022-08-27T01:07:57;19.50;99.90
12446;DHT22;6287;50.984;7.022;2022-08-27T01:10:29;19.50;99.90
12446;DHT22;6287;50.984;7.022;2022-08-27T01:12:55;19.50;99.90
12446;DHT22;6287;50.984;7.022;2022-08-27T01:15:27;19.50;99.90
12446;DHT22;6287;50.984;7.022;2022-08-27T01:17:54;19.50;99.90
12446;DHT22;6287;50.984;7.022;2022-08-27T01:20:27;19.50;99.90
12446;DHT22;6287;50.984;7.022;2022-08-27T01:23:52;19.50;99.90
12446;DHT22;6287;50.984;7.022;2022-08-27T01:25:58;19.50;99.90
12446;DHT22;6287;50.984;7.022;2022-08-27T01:28:24;19.40;99.90
12446;DHT22;6287;50.984;7.022;2022-08-27T01:30:50;19.40;99.90
12446;DHT22;6287;50.984;7.022;2022-08-27T01:33:19;19.40;99.90
12446;DHT22;6287;50.984;7.022;2022-08-27T01:35:50;19.40;99.90
12446;DHT22;6287;50.984;7.022;2022-08-27T01:38:18;19.30;99.90
12446;DHT22;6287;50.984;7.022;2022-08-27T01:40:44;19.30;99.90
12446;DHT22;6287;50.984;7.022;2022-08-27T01:43:10;19.30;99.90
12446;DHT22;6287;50.984;7.022;2022-08-27T01:45:49;19.30;99.90
12446;DHT22;6287;50.984;7.022;2022-08-27T01:48:19;19.30;99.90
12446;DHT22;6287;50.984;7.022;2022-08-27T01:50:46;19.30;99.90
12446;DHT22;6287;50.984;7.022;2022-08-27T01:53:21;19.20;99.90
12446;DHT22;6287;50.984;7.022;2022-08-27T01:55:49;19.10;99.90
12446;DHT22;6287;50.984;7.022;2022-08-27T01:58:19;19.10;99.90
12446;DHT22;6287;50.984;7.022;2022-08-27T02:00:51;19.10;99.90
12446;DHT22;6287;50.984;7.022;2022-08-27T02:03:17;19.10;99.90
12446;DHT22;6287;50.984;7.022;2022-08-27T02:05:45;19.10;99.90
12446;DHT22;6287;50.984;7.022;2022-08-27T02:08:16;19.10;99.90
12446;DHT22;6287;50.984;7.022;2022-08-27T02:10:50;19.10;99.90
12446;DHT22;6287;50.984;7.022;2022-08-27T02:13:18;19.10;99.90
12446;DHT22;6287;50.984;7.022;2022-08-27T02:15:44;19.10;99.90
12446;DHT22;6287;50.984;7.022;2022-08-27T02:18:11;19.10;99.90
12446;DHT22;6287;50.984;7.022;2022-08-27T02:20:37;19.10;99.90
12446;DHT22;6287;50.984;7.022;2022-08-27T02:23:03;19.10;99.90
12446;DHT22;6287;50.984;7.022;2022-08-27T02:25:30;19.10;99.90
12446;DHT22;6287;50.984;7.022;2022-08-27T02:27:58;19.20;99.90
12446;DHT22;6287;50.984;7.022;2022-08-27T02:30:25;19.20;99.90
12446;DHT22;6287;50.984;7.022;2022-08-27T02:32:51;19.20;99.90
12446;DHT22;6287;50.984;7.022;2022-08-27T02:35:23;19.20;99.90
12446;DHT22;6287;50.984;7.022;2022-08-27T02:37:50;19.10;99.90
12446;DHT22;6287;50.984;7.022;2022-08-27T02:40:19;19.10;99.90
12446;DHT22;6287;50.984;7.022;2022-08-27T02:42:47;19.10;99.90
12446;DHT22;6287;50.984;7.022;2022-08-27T02:45:18;19.10;99.90
12446;DHT22;6287;50.984;7.022;2022-08-27T02:47:46;19.00;99.90
12446;DHT22;6287;50.984;7.022;2022-08-27T02:50:15;19.00;99.90
12446;DHT22;6287;50.984;7.022;2022-08-27T02:52:43;19.00;99.90
12446;DHT22;6287;50.984;7.022;2022-08-27T02:55:10;19.00;99.90
12446;DHT22;6287;50.984;7.022;2022-08-27T02:57:36;19.00;99.90
12446;DHT22;6287;50.984;7.022;2022-08-27T03:00:05;19.00;99.90
12446;DHT22;6287;50.984;7.022;2022-08-27T03:02:33;19.00;99.90
12446;DHT22;6287;50.984;7.022;2022-08-27T03:05:00;19.00;99.90
12446;DHT22;6287;50.984;7.022;2022-08-27T03:07:28;19.00;99.90
12446;DHT22;6287;50.984;7.022;2022-08-27T03:09:56;19.00;99.90
12446;DHT22;6287;50.984;7.022;2022-08-27T03:12:22;18.90;99.90
12446;DHT22;6287;50.984;7.022;2022-08-27T03:14:49;18.90;99.90
12446;DHT22;6287;50.984;7.022;2022-08-27T03:17:17;18.90;99.90
12446;DHT22;6287;50.984;7.022;2022-08-27T03:20:04;18.90;99.90
12446;DHT22;6287;50.984;7.022;2022-08-27T03:22:33;18.90;99.90
12446;DHT22;6287;50.984;7.022;2022-08-27T03:25:01;18.90;99.90
12446;DHT22;6287;50.984;7.022;2022-08-27T03:27:29;18.90;99.90
12446;DHT22;6287;50.984;7.022;2022-08-27T03:29:57;18.90;99.90
12446;DHT22;6287;50.984;7.022;2022-08-27T03:32:25;18.90;99.90
12446;DHT22;6287;50.984;7.022;2022-08-27T03:34:51;18.90;99.90
12446;DHT22;6287;50.984;7.022;2022-08-27T03:37:22;18.80;99.90
12446;DHT22;6287;50.984;7.022;2022-08-27T03:39:52;18.90;99.90
12446;DHT22;6287;50.984;7.022;2022-08-27T03:42:17;18.90;99.90
12446;DHT22;6287;50.984;7.022;2022-08-27T03:44:43;18.90;99.90
12446;DHT22;6287;50.984;7.022;2022-08-27T03:47:09;18.90;99.90
12446;DHT22;6287;50.984;7.022;2022-08-27T03:49:37;18.90;99.90
12446;DHT22;6287;50.984;7.022;2022-08-27T03:52:02;18.80;99.90
12446;DHT22;6287;50.984;7.022;2022-08-27T03:54:33;18.80;99.90
12446;DHT22;6287;50.984;7.022;2022-08-27T03:56:59;18.90;99.90
12446;DHT22;6287;50.984;7.022;2022-08-27T03:59:24;18.90;99.90
12446;DHT22;6287;50.984;7.022;2022-08-27T04:01:52;18.90;99.90
12446;DHT22;6287;50.984;7.022;2022-08-27T04:04:18;18.90;99.90
12446;DHT22;6287;50.984;7.022;2022-08-27T04:06:46;18.80;99.90
12446;DHT22;6287;50.984;7.022;2022-08-27T04:09:12;18.80;99.90
12446;DHT22;6287;50.984;7.022;2022-08-27T04:11:40;18.80;99.90
12446;DHT22;6287;50.984;7.022;2022-08-27T04:14:08;18.80;99.90
12446;DHT22;6287;50.984;7.022;2022-08-27T04:16:36;18.70;99.90
12446;DHT22;6287;50.984;7.022;2022-08-27T04:19:08;18.70;99.90
12446;DHT22;6287;50.984;7.022;2022-08-27T04:21:34;18.70;99.90
12446;DHT22;6287;50.984;7.022;2022-08-27T04:24:03;18.70;99.90
12446;DHT22;6287;50.984;7.022;2022-08-27T04:26:29;18.70;99.90
12446;DHT22;6287;50.984;7.022;2022-08-27T04:28:59;18.70;99.90
12446;DHT22;6287;50.984;7.022;2022-08-27T04:31:25;18.70;99.90
12446;DHT22;6287;50.984;7.022;2022-08-27T04:33:51;18.70;99.90
12446;DHT22;6287;50.984;7.022;2022-08-27T04:36:19;18.70;99.90
12446;DHT22;6287;50.984;7.022;2022-08-27T04:38:49;18.70;99.90
12446;DHT22;6287;50.984;7.022;2022-08-27T04:41:16;18.70;99.90
12446;DHT22;6287;50.984;7.022;2022-08-27T04:43:57;18.70;99.90
12446;DHT22;6287;50.984;7.022;2022-08-27T04:46:29;18.70;99.90
12446;DHT22;6287;50.984;7.022;2022-08-27T04:48:57;18.70;99.90
12446;DHT22;6287;50.984;7.022;2022-08-27T04:51:25;18.70;99.90
12446;DHT22;6287;50.984;7.022;2022-08-27T04:53:51;18.70;99.90
12446;DHT22;6287;50.984;7.022;2022-08-27T04:56:18;18.70;99.90
12446;DHT22;6287;50.984;7.022;2022-08-27T04:58:49;18.60;99.90
12446;DHT22;6287;50.984;7.022;2022-08-27T05:01:20;18.60;99.90
12446;DHT22;6287;50.984;7.022;2022-08-27T05:03:46;18.60;99.90
12446;DHT22;6287;50.984;7.022;2022-08-27T05:06:12;18.60;99.90
12446;DHT22;6287;50.984;7.022;2022-08-27T05:08:40;18.60;99.90
12446;DHT22;6287;50.984;7.022;2022-08-27T05:11:12;18.50;99.90
12446;DHT22;6287;50.984;7.022;2022-08-27T05:13:41;18.50;99.90
12446;DHT22;6287;50.984;7.022;2022-08-27T05:16:12;18.50;99.90
12446;DHT22;6287;50.984;7.022;2022-08-27T05:18:39;18.50;99.90
12446;DHT22;6287;50.984;7.022;2022-08-27T05:21:06;18.50;99.90
12446;DHT22;6287;50.984;7.022;2022-08-27T05:23:32;18.50;99.90
12446;DHT22;6287;50.984;7.022;2022-08-27T05:26:00;18.50;99.90
12446;DHT22;6287;50.984;7.022;2022-08-27T05:28:31;18.50;99.90
12446;DHT22;6287;50.984;7.022;2022-08-27T05:31:04;18.40;99.90
12446;DHT22;6287;50.984;7.022;2022-08-27T05:33:32;18.40;99.90
12446;DHT22;6287;50.984;7.022;2022-08-27T05:35:59;18.40;99.90
12446;DHT22;6287;50.984;7.022;2022-08-27T05:38:28;18.40;99.90
12446;DHT22;6287;50.984;7.022;2022-08-27T05:41:07;18.40;99.90
12446;DHT22;6287;50.984;7.022;2022-08-27T05:43:34;18.30;99.90
12446;DHT22;6287;50.984;7.022;2022-08-27T05:46:05;18.30;99.90
12446;DHT22;6287;50.984;7.022;2022-08-27T05:48:33;18.30;99.90
12446;DHT22;6287;50.984;7.022;2022-08-27T05:51:13;18.20;99.90
12446;DHT22;6287;50.984;7.022;2022-08-27T05:53:39;18.20;99.90
12446;DHT22;6287;50.984;7.022;2022-08-27T05:56:11;18.20;99.90
12446;DHT22;6287;50.984;7.022;2022-08-27T05:58:37;18.20;99.90
12446;DHT22;6287;50.984;7.022;2022-08-27T06:01:22;18.20;99.90
12446;DHT22;6287;50.984;7.022;2022-08-27T06:03:48;18.20;99.90
12446;DHT22;6287;50.984;7.022;2022-08-27T06:06:18;18.20;99.90
12446;DHT22;6287;50.984;7.022;2022-08-27T06:08:46;18.20;99.90
12446;DHT22;6287;50.984;7.022;2022-08-27T06:11:12;18.20;99.90
12446;DHT22;6287;50.984;7.022;2022-08-27T06:13:37;18.20;99.90
12446;DHT22;6287;50.984;7.022;2022-08-27T06:16:09;18.10;99.90
12446;DHT22;6287;50.984;7.022;2022-08-27T06:18:36;18.10;99.90
12446;DHT22;6287;50.984;7.022;2022-08-27T06:21:06;18.10;99.90
12446;DHT22;6287;50.984;7.022;2022-08-27T06:23:37;18.10;99.90
12446;DHT22;6287;50.984;7.022;2022-08-27T06:26:09;18.10;99.90
12446;DHT22;6287;50.984;7.022;2022-08-27T06:28:36;18.10;99.90
12446;DHT22;6287;50.984;7.022;2022-08-27T06:31:12;18.20;99.90
12446;DHT22;6287;50.984;7.022;2022-08-27T06:33:39;18.20;99.90
12446;DHT22;6287;50.984;7.022;2022-08-27T06:36:08;18.20;99.90
12446;DHT22;6287;50.984;7.022;2022-08-27T06:38:34;18.30;99.90
12446;DHT22;6287;50.984;7.022;2022-08-27T06:41:04;18.30;99.90
12446;DHT22;6287;50.984;7.022;2022-08-27T06:43:37;18.30;99.90
12446;DHT22;6287;50.984;7.022;2022-08-27T06:46:05;18.30;99.90
12446;DHT22;6287;50.984;7.022;2022-08-27T06:48:34;18.30;99.90
12446;DHT22;6287;50.984;7.022;2022-08-27T06:51:09;18.40;99.90
12446;DHT22;6287;50.984;7.022;2022-08-27T06:53:37;18.30;99.90
12446;DHT22;6287;50.984;7.022;2022-08-27T06:56:03;18.40;99.90
12446;DHT22;6287;50.984;7.022;2022-08-27T06:58:29;18.40;99.90
12446;DHT22;6287;50.984;7.022;2022-08-27T07:00:58;18.40;99.90
12446;DHT22;6287;50.984;7.022;2022-08-27T07:03:24;18.40;99.90
12446;DHT22;6287;50.984;7.022;2022-08-27T07:05:50;18.30;99.90
12446;DHT22;6287;50.984;7.022;2022-08-27T07:08:17;18.30;99.90
12446;DHT22;6287;50.984;7.022;2022-08-27T07:10:43;18.30;99.90
12446;DHT22;6287;50.984;7.022;2022-08-27T07:13:08;18.30;99.90
12446;DHT22;6287;50.984;7.022;2022-08-27T07:15:37;18.30;99.90
12446;DHT22;6287;50.984;7.022;2022-08-27T07:18:03;18.30;99.90
12446;DHT22;6287;50.984;7.022;2022-08-27T07:20:29;18.30;99.90
12446;DHT22;6287;50.984;7.022;2022-08-27T07:22:57;18.30;99.90
12446;DHT22;6287;50.984;7.022;2022-08-27T07:25:24;18.30;99.90
12446;DHT22;6287;50.984;7.022;2022-08-27T07:27:51;18.30;99.90
12446;DHT22;6287;50.984;7.022;2022-08-27T07:30:23;18.30;99.90
12446;DHT22;6287;50.984;7.022;2022-08-27T07:32:50;18.40;99.90
12446;DHT22;6287;50.984;7.022;2022-08-27T07:35:21;18.40;99.90
12446;DHT22;6287;50.984;7.022;2022-08-27T07:37:51;18.30;99.90
12446;DHT22;6287;50.984;7.022;2022-08-27T07:40:17;18.40;99.90
12446;DHT22;6287;50.984;7.022;2022-08-27T07:42:42;18.40;99.90
12446;DHT22;6287;50.984;7.022;2022-08-27T07:45:28;18.50;99.90
12446;DHT22;6287;50.984;7.022;2022-08-27T07:47:56;18.50;99.90
12446;DHT22;6287;50.984;7.022;2022-08-27T07:50:22;18.60;99.90
12446;DHT22;6287;50.984;7.022;2022-08-27T07:52:50;18.60;99.90
12446;DHT22;6287;50.984;7.022;2022-08-27T07:55:19;18.60;99.90
12446;DHT22;6287;50.984;7.022;2022-08-27T07:57:44;18.60;99.90
12446;DHT22;6287;50.984;7.022;2022-08-27T08:00:13;18.60;99.90
12446;DHT22;6287;50.984;7.022;2022-08-27T08:02:39;18.60;99.90
12446;DHT22;6287;50.984;7.022;2022-08-27T08:05:07;18.70;99.90
12446;DHT22;6287;50.984;7.022;2022-08-27T08:07:33;18.90;99.90
12446;DHT22;6287;50.984;7.022;2022-08-27T08:10:03;18.90;99.90
12446;DHT22;6287;50.984;7.022;2022-08-27T08:12:29;19.10;99.90
12446;DHT22;6287;50.984;7.022;2022-08-27T08:14:55;19.10;99.90
12446;DHT22;6287;50.984;7.022;2022-08-27T08:17:24;19.20;99.90
12446;DHT22;6287;50.984;7.022;2022-08-27T08:19:57;19.30;99.90
12446;DHT22;6287;50.984;7.022;2022-08-27T08:22:23;19.30;99.90
12446;DHT22;6287;50.984;7.022;2022-08-27T08:24:52;19.50;99.90
12446;DHT22;6287;50.984;7.022;2022-08-27T08:27:20;19.40;99.90
12446;DHT22;6287;50.984;7.022;2022-08-27T08:29:51;19.60;99.90
12446;DHT22;6287;50.984;7.022;2022-08-27T08:32:21;19.50;99.90
12446;DHT22;6287;50.984;7.022;2022-08-27T08:34:48;19.50;99.90
12446;DHT22;6287;50.984;7.022;2022-08-27T08:37:20;19.50;99.90
12446;DHT22;6287;50.984;7.022;2022-08-27T08:39:47;19.60;99.90
12446;DHT22;6287;50.984;7.022;2022-08-27T08:42:41;19.80;99.90
12446;DHT22;6287;50.984;7.022;2022-08-27T08:45:11;19.80;99.90
12446;DHT22;6287;50.984;7.022;2022-08-27T08:47:52;19.80;99.90
12446;DHT22;6287;50.984;7.022;2022-08-27T08:51:06;19.90;99.90
12446;DHT22;6287;50.984;7.022;2022-08-27T08:53:48;19.90;99.90
12446;DHT22;6287;50.984;7.022;2022-08-27T08:59:20;19.90;99.90
12446;DHT22;6287;50.984;7.022;2022-08-27T09:01:50;19.90;99.90
12446;DHT22;6287;50.984;7.022;2022-08-27T09:04:17;19.90;99.90
12446;DHT22;6287;50.984;7.022;2022-08-27T09:06:50;20.00;99.90
12446;DHT22;6287;50.984;7.022;2022-08-27T09:12:24;20.10;99.90
12446;DHT22;6287;50.984;7.022;2022-08-27T09:15:18;20.30;99.90
12446;DHT22;6287;50.984;7.022;2022-08-27T09:17:46;20.30;99.90
12446;DHT22;6287;50.984;7.022;2022-08-27T09:20:17;20.40;99.90
12446;DHT22;6287;50.984;7.022;2022-08-27T09:23:00;20.40;99.90
12446;DHT22;6287;50.984;7.022;2022-08-27T09:25:34;20.50;99.90
12446;DHT22;6287;50.984;7.022;2022-08-27T09:28:06;20.50;99.90
12446;DHT22;6287;50.984;7.022;2022-08-27T09:30:52;20.50;99.90
12446;DHT22;6287;50.984;7.022;2022-08-27T09:33:20;20.50;99.90
12446;DHT22;6287;50.984;7.022;2022-08-27T09:35:49;20.50;99.90
12446;DHT22;6287;50.984;7.022;2022-08-27T09:38:27;20.50;99.90
12446;DHT22;6287;50.984;7.022;2022-08-27T09:40:56;20.50;99.90
12446;DHT22;6287;50.984;7.022;2022-08-27T09:43:27;20.60;99.90
12446;DHT22;6287;50.984;7.022;2022-08-27T09:46:05;20.60;99.90
12446;DHT22;6287;50.984;7.022;2022-08-27T09:48:37;20.70;99.90
12446;DHT22;6287;50.984;7.022;2022-08-27T09:51:26;20.70;99.90
12446;DHT22;6287;50.984;7.022;2022-08-27T09:54:01;20.70;99.90
12446;DHT22;6287;50.984;7.022;2022-08-27T09:56:37;20.70;99.90
12446;DHT22;6287;50.984;7.022;2022-08-27T10:01:51;20.80;99.90
12446;DHT22;6287;50.984;7.022;2022-08-27T10:04:39;20.90;99.90
12446;DHT22;6287;50.984;7.022;2022-08-27T10:07:42;21.00;99.90
12446;DHT22;6287;50.984;7.022;2022-08-27T10:10:25;21.10;99.90
12446;DHT22;6287;50.984;7.022;2022-08-27T10:13:29;21.10;99.90
12446;DHT22;6287;50.984;7.022;2022-08-27T10:19:10;21.30;99.90
12446;DHT22;6287;50.984;7.022;2022-08-27T10:22:11;21.40;99.90
12446;DHT22;6287;50.984;7.022;2022-08-27T10:25:16;21.50;99.90
12446;DHT22;6287;50.984;7.022;2022-08-27T10:28:02;21.50;99.90
12446;DHT22;6287;50.984;7.022;2022-08-27T10:33:29;21.50;99.90
12446;DHT22;6287;50.984;7.022;2022-08-27T10:53:00;21.30;99.90
12446;DHT22;6287;50.984;7.022;2022-08-27T10:55:35;21.20;99.90
12446;DHT22;6287;50.984;7.022;2022-08-27T11:01:03;21.10;99.90
12446;DHT22;6287;50.984;7.022;2022-08-27T11:03:35;21.10;99.90
12446;DHT22;6287;50.984;7.022;2022-08-27T11:06:20;21.20;99.90
12446;DHT22;6287;50.984;7.022;2022-08-27T11:08:56;21.30;99.90
12446;DHT22;6287;50.984;7.022;2022-08-27T11:11:37;21.30;99.90
12446;DHT22;6287;50.984;7.022;2022-08-27T11:14:11;21.30;99.90
12446;DHT22;6287;50.984;7.022;2022-08-27T11:16:46;21.30;99.90
12446;DHT22;6287;50.984;7.022;2022-08-27T11:22:13;21.60;99.90
12446;DHT22;6287;50.984;7.022;2022-08-27T11:27:37;21.80;99.90
12446;DHT22;6287;50.984;7.022;2022-08-27T11:30:05;21.80;99.90
12446;DHT22;6287;50.984;7.022;2022-08-27T11:33:00;21.80;99.90
12446;DHT22;6287;50.984;7.022;2022-08-27T11:43:48;22.20;99.90
12446;DHT22;6287;50.984;7.022;2022-08-27T11:46:23;22.30;99.90
12446;DHT22;6287;50.984;7.022;2022-08-27T11:49:01;22.30;99.90
12446;DHT22;6287;50.984;7.022;2022-08-27T11:51:41;22.30;99.90
12446;DHT22;6287;50.984;7.022;2022-08-27T11:54:30;22.40;99.90
12446;DHT22;6287;50.984;7.022;2022-08-27T11:57:00;22.40;99.90
12446;DHT22;6287;50.984;7.022;2022-08-27T12:01:54;22.50;99.90
12446;DHT22;6287;50.984;7.022;2022-08-27T12:04:32;22.70;99.90
12446;DHT22;6287;50.984;7.022;2022-08-27T12:09:26;22.90;99.90
12446;DHT22;6287;50.984;7.022;2022-08-27T12:15:10;23.00;99.90
12446;DHT22;6287;50.984;7.022;2022-08-27T12:17:56;23.10;99.90
12446;DHT22;6287;50.984;7.022;2022-08-27T12:23:27;23.40;99.90
12446;DHT22;6287;50.984;7.022;2022-08-27T12:26:32;23.60;99.90
12446;DHT22;6287;50.984;7.022;2022-08-27T12:37:27;24.10;99.90
12446;DHT22;6287;50.984;7.022;2022-08-27T12:39:55;24.10;99.90
12446;DHT22;6287;50.984;7.022;2022-08-27T12:42:26;24.10;99.90
12446;DHT22;6287;50.984;7.022;2022-08-27T12:44:56;24.10;99.90
12446;DHT22;6287;50.984;7.022;2022-08-27T12:47:22;24.10;99.90
12446;DHT22;6287;50.984;7.022;2022-08-27T12:50:00;24.00;99.90
12446;DHT22;6287;50.984;7.022;2022-08-27T12:55:07;24.00;99.90
12446;DHT22;6287;50.984;7.022;2022-08-27T13:03:43;24.20;99.90
12446;DHT22;6287;50.984;7.022;2022-08-27T13:06:30;24.20;99.90
12446;DHT22;6287;50.984;7.022;2022-08-27T13:09:02;24.20;99.90
12446;DHT22;6287;50.984;7.022;2022-08-27T13:11:45;24.20;99.90
12446;DHT22;6287;50.984;7.022;2022-08-27T13:14:20;24.20;99.90
12446;DHT22;6287;50.984;7.022;2022-08-27T13:16:57;24.10;99.90
12446;DHT22;6287;50.984;7.022;2022-08-27T13:19:33;24.20;99.90
12446;DHT22;6287;50.984;7.022;2022-08-27T13:21:59;24.20;99.90
12446;DHT22;6287;50.984;7.022;2022-08-27T13:24:35;24.30;99.90
12446;DHT22;6287;50.984;7.022;2022-08-27T13:27:04;24.40;99.90
12446;DHT22;6287;50.984;7.022;2022-08-27T13:29:33;24.40;99.90
12446;DHT22;6287;50.984;7.022;2022-08-27T13:31:59;24.40;99.90
12446;DHT22;6287;50.984;7.022;2022-08-27T13:34:27;24.40;99.90
12446;DHT22;6287;50.984;7.022;2022-08-27T13:37:00;24.30;99.90
12446;DHT22;6287;50.984;7.022;2022-08-27T13:39:33;24.30;99.90
12446;DHT22;6287;50.984;7.022;2022-08-27T13:42:03;24.50;99.90
12446;DHT22;6287;50.984;7.022;2022-08-27T13:44:39;24.50;99.90
12446;DHT22;6287;50.984;7.022;2022-08-27T13:47:23;24.60;99.90
12446;DHT22;6287;50.984;7.022;2022-08-27T13:49:50;24.50;99.90
12446;DHT22;6287;50.984;7.022;2022-08-27T13:52:31;24.40;99.90
12446;DHT22;6287;50.984;7.022;2022-08-27T13:55:04;24.30;99.90
12446;DHT22;6287;50.984;7.022;2022-08-27T13:57:48;24.30;99.90
12446;DHT22;6287;50.984;7.022;2022-08-27T14:00:22;24.30;99.90
12446;DHT22;6287;50.984;7.022;2022-08-27T14:02:52;24.40;99.90
12446;DHT22;6287;50.984;7.022;2022-08-27T14:07:59;24.50;99.90
12446;DHT22;6287;50.984;7.022;2022-08-27T14:10:38;24.40;99.90
12446;DHT22;6287;50.984;7.022;2022-08-27T14:15:43;24.40;99.90
12446;DHT22;6287;50.984;7.022;2022-08-27T14:18:25;24.40;99.90
12446;DHT22;6287;50.984;7.022;2022-08-27T14:20:55;24.30;99.90
12446;DHT22;6287;50.984;7.022;2022-08-27T14:23:21;24.20;99.90
12446;DHT22;6287;50.984;7.022;2022-08-27T14:25:52;24.00;99.90
12446;DHT22;6287;50.984;7.022;2022-08-27T14:28:18;23.90;99.90
12446;DHT22;6287;50.984;7.022;2022-08-27T14:30:45;23.80;99.90
12446;DHT22;6287;50.984;7.022;2022-08-27T14:33:11;23.80;99.90
12446;DHT22;6287;50.984;7.022;2022-08-27T14:35:40;23.70;99.90
12446;DHT22;6287;50.984;7.022;2022-08-27T14:38:20;23.70;99.90
12446;DHT22;6287;50.984;7.022;2022-08-27T14:40:51;23.70;99.90
12446;DHT22;6287;50.984;7.022;2022-08-27T14:43:18;23.80;99.90
12446;DHT22;6287;50.984;7.022;2022-08-27T14:45:47;23.80;99.90
12446;DHT22;6287;50.984;7.022;2022-08-27T14:48:23;23.70;99.90
12446;DHT22;6287;50.984;7.022;2022-08-27T14:50:52;23.60;99.90
12446;DHT22;6287;50.984;7.022;2022-08-27T14:53:20;23.70;99.90
12446;DHT22;6287;50.984;7.022;2022-08-27T14:55:48;23.80;99.90
12446;DHT22;6287;50.984;7.022;2022-08-27T14:58:17;23.80;99.90
12446;DHT22;6287;50.984;7.022;2022-08-27T15:00:43;23.90;99.90
12446;DHT22;6287;50.984;7.022;2022-08-27T15:03:12;23.80;99.90
12446;DHT22;6287;50.984;7.022;2022-08-27T15:05:37;23.90;99.90
12446;DHT22;6287;50.984;7.022;2022-08-27T15:08:05;23.80;99.90
12446;DHT22;6287;50.984;7.022;2022-08-27T15:10:31;23.80;99.90
12446;DHT22;6287;50.984;7.022;2022-08-27T15:13:02;23.80;99.90
12446;DHT22;6287;50.984;7.022;2022-08-27T15:15:30;23.80;99.90
12446;DHT22;6287;50.984;7.022;2022-08-27T15:17:56;23.80;99.90
12446;DHT22;6287;50.984;7.022;2022-08-27T15:20:21;23.80;99.90
12446;DHT22;6287;50.984;7.022;2022-08-27T15:22:51;23.70;99.90
12446;DHT22;6287;50.984;7.022;2022-08-27T15:25:20;23.70;99.90
12446;DHT22;6287;50.984;7.022;2022-08-27T15:27:48;23.60;99.90
12446;DHT22;6287;50.984;7.022;2022-08-27T15:30:17;23.60;99.90
12446;DHT22;6287;50.984;7.022;2022-08-27T15:32:49;23.50;99.90
12446;DHT22;6287;50.984;7.022;2022-08-27T15:35:20;23.50;99.90
12446;DHT22;6287;50.984;7.022;2022-08-27T15:37:49;23.50;99.90
12446;DHT22;6287;50.984;7.022;2022-08-27T15:40:21;23.50;99.90
12446;DHT22;6287;50.984;7.022;2022-08-27T15:42:55;23.40;99.90
12446;DHT22;6287;50.984;7.022;2022-08-27T15:45:21;23.40;99.90
12446;DHT22;6287;50.984;7.022;2022-08-27T15:47:49;23.30;99.90
12446;DHT22;6287;50.984;7.022;2022-08-27T15:50:14;23.30;99.90
12446;DHT22;6287;50.984;7.022;2022-08-27T15:52:41;23.30;99.90
12446;DHT22;6287;50.984;7.022;2022-08-27T15:55:22;23.30;99.90
12446;DHT22;6287;50.984;7.022;2022-08-27T15:57:50;23.20;99.90
12446;DHT22;6287;50.984;7.022;2022-08-27T16:00:17;23.20;99.90
12446;DHT22;6287;50.984;7.022;2022-08-27T16:02:45;23.20;99.90
12446;DHT22;6287;50.984;7.022;2022-08-27T16:05:13;23.10;99.90
12446;DHT22;6287;50.984;7.022;2022-08-27T16:07:39;23.10;99.90
12446;DHT22;6287;50.984;7.022;2022-08-27T16:10:06;23.00;99.90
12446;DHT22;6287;50.984;7.022;2022-08-27T16:12:36;23.00;99.90
12446;DHT22;6287;50.984;7.022;2022-08-27T16:15:06;22.90;99.90
12446;DHT22;6287;50.984;7.022;2022-08-27T16:17:34;22.90;99.90
12446;DHT22;6287;50.984;7.022;2022-08-27T16:20:04;22.90;99.90
12446;DHT22;6287;50.984;7.022;2022-08-27T16:22:30;22.90;99.90
12446;DHT22;6287;50.984;7.022;2022-08-27T16:24:59;22.90;99.90
12446;DHT22;6287;50.984;7.022;2022-08-27T16:27:27;22.90;99.90
12446;DHT22;6287;50.984;7.022;2022-08-27T16:29:55;22.80;99.90
12446;DHT22;6287;50.984;7.022;2022-08-27T16:32:21;22.80;99.90
12446;DHT22;6287;50.984;7.022;2022-08-27T16:34:47;22.80;99.90
12446;DHT22;6287;50.984;7.022;2022-08-27T16:37:15;22.70;99.90
12446;DHT22;6287;50.984;7.022;2022-08-27T16:39:42;22.70;99.90
12446;DHT22;6287;50.984;7.022;2022-08-27T16:42:08;22.70;99.90
12446;DHT22;6287;50.984;7.022;2022-08-27T16:44:35;22.70;99.90
12446;DHT22;6287;50.984;7.022;2022-08-27T16:47:03;22.60;99.90
12446;DHT22;6287;50.984;7.022;2022-08-27T16:49:31;22.60;99.90
12446;DHT22;6287;50.984;7.022;2022-08-27T16:52:15;22.60;99.90
12446;DHT22;6287;50.984;7.022;2022-08-27T16:54:41;22.50;99.90
12446;DHT22;6287;50.984;7.022;2022-08-27T16:57:09;22.50;99.90
12446;DHT22;6287;50.984;7.022;2022-08-27T16:59:34;22.40;99.90
12446;DHT22;6287;50.984;7.022;2022-08-27T17:02:00;22.40;99.90
12446;DHT22;6287;50.984;7.022;2022-08-27T17:04:28;22.40;99.90
12446;DHT22;6287;50.984;7.022;2022-08-27T17:06:56;22.40;99.90
12446;DHT22;6287;50.984;7.022;2022-08-27T17:09:22;22.40;99.90
12446;DHT22;6287;50.984;7.022;2022-08-27T17:11:53;22.30;99.90
12446;DHT22;6287;50.984;7.022;2022-08-27T17:14:26;22.30;99.90
12446;DHT22;6287;50.984;7.022;2022-08-27T17:16:52;22.20;99.90
12446;DHT22;6287;50.984;7.022;2022-08-27T17:19:18;22.20;99.90
12446;DHT22;6287;50.984;7.022;2022-08-27T17:21:49;22.20;99.90
12446;DHT22;6287;50.984;7.022;2022-08-27T17:24:17;22.20;99.90
12446;DHT22;6287;50.984;7.022;2022-08-27T17:26:43;22.10;99.90
12446;DHT22;6287;50.984;7.022;2022-08-27T17:29:11;22.10;99.90